sensor_id;sensor_type;location;lat;lon;timestamp;temperature;humidity
41592;DHT22;28026;48.562;14.440;2024-02-16T00:00:26;5.20;99.90
41592;DHT22;28026;48.562;14.440;2024-02-16T00:02:57;5.30;99.90
41592;DHT22;28026;48.562;14.440;2024-02-16T00:05:29;5.20;99.90
41592;DHT22;28026;48.562;14.440;2024-02-16T00:08:00;5.00;99.90
41592;DHT22;28026;48.562;14.440;2024-02-16T00:10:33;4.60;99.90
41592;DHT22;28026;48.562;14.440;2024-02-16T00:13:04;4.20;99.90
41592;DHT22;28026;48.562;14.440;2024-02-16T00:15:35;4.20;99.90
41592;DHT22;28026;48.562;14.440;2024-02-16T00:18:06;4.30;99.90
41592;DHT22;28026;48.562;14.440;2024-02-16T00:20:38;4.50;99.90
41592;DHT22;28026;48.562;14.440;2024-02-16T00:23:09;4.50;99.90
41592;DHT22;28026;48.562;14.440;2024-02-16T00:25:40;4.50;99.90
41592;DHT22;28026;48.562;14.440;2024-02-16T00:28:11;4.50;99.90
41592;DHT22;28026;48.562;14.440;2024-02-16T00:30:42;4.60;99.90
41592;DHT22;28026;48.562;14.440;2024-02-16T00:33:13;4.70;99.90
41592;DHT22;28026;48.562;14.440;2024-02-16T00:35:44;4.80;99.90
41592;DHT22;28026;48.562;14.440;2024-02-16T00:38:18;4.80;99.90
41592;DHT22;28026;48.562;14.440;2024-02-16T00:40:48;4.80;99.90
41592;DHT22;28026;48.562;14.440;2024-02-16T00:43:19;4.90;99.90
41592;DHT22;28026;48.562;14.440;2024-02-16T00:45:50;4.80;99.90
41592;DHT22;28026;48.562;14.440;2024-02-16T00:48:21;4.80;99.90
41592;DHT22;28026;48.562;14.440;2024-02-16T00:50:52;4.90;99.90
41592;DHT22;28026;48.562;14.440;2024-02-16T00:53:23;4.80;99.90
41592;DHT22;28026;48.562;14.440;2024-02-16T00:55:55;4.90;99.90
41592;DHT22;28026;48.562;14.440;2024-02-16T00:58:25;4.80;99.90
41592;DHT22;28026;48.562;14.440;2024-02-16T01:00:56;4.80;99.90
41592;DHT22;28026;48.562;14.440;2024-02-16T01:03:27;4.90;99.90
41592;DHT22;28026;48.562;14.440;2024-02-16T01:05:58;4.80;99.90
41592;DHT22;28026;48.562;14.440;2024-02-16T01:08:29;4.80;99.90
41592;DHT22;28026;48.562;14.440;2024-02-16T01:11:00;4.90;99.90
41592;DHT22;28026;48.562;14.440;2024-02-16T01:13:31;4.70;99.90
41592;DHT22;28026;48.562;14.440;2024-02-16T01:16:03;4.80;99.90
41592;DHT22;28026;48.562;14.440;2024-02-16T01:18:35;4.70;99.90
41592;DHT22;28026;48.562;14.440;2024-02-16T01:21:07;4.70;99.90
41592;DHT22;28026;48.562;14.440;2024-02-16T01:23:39;4.70;99.90
41592;DHT22;28026;48.562;14.440;2024-02-16T01:26:10;4.70;99.90
41592;DHT22;28026;48.562;14.440;2024-02-16T01:28:41;4.60;99.90
41592;DHT22;28026;48.562;14.440;2024-02-16T01:31:12;4.50;99.90
41592;DHT22;28026;48.562;14.440;2024-02-16T01:33:43;4.50;99.90
41592;DHT22;28026;48.562;14.440;2024-02-16T01:36:14;4.50;99.90
41592;DHT22;28026;48.562;14.440;2024-02-16T01:38:45;4.50;99.90
41592;DHT22;28026;48.562;14.440;2024-02-16T01:41:16;4.50;99.90
41592;DHT22;28026;48.562;14.440;2024-02-16T01:43:46;4.40;99.90
41592;DHT22;28026;48.562;14.440;2024-02-16T01:46:17;4.50;99.90
41592;DHT22;28026;48.562;14.440;2024-02-16T01:48:49;4.40;99.90
41592;DHT22;28026;48.562;14.440;2024-02-16T01:51:23;4.30;99.90
41592;DHT22;28026;48.562;14.440;2024-02-16T01:53:56;4.30;99.90
41592;DHT22;28026;48.562;14.440;2024-02-16T01:56:28;4.20;99.90
41592;DHT22;28026;48.562;14.440;2024-02-16T01:59:00;4.30;99.90
41592;DHT22;28026;48.562;14.440;2024-02-16T02:01:31;4.30;99.90
41592;DHT22;28026;48.562;14.440;2024-02-16T02:04:02;4.40;99.90
41592;DHT22;28026;48.562;14.440;2024-02-16T02:06:34;4.30;99.90
41592;DHT22;28026;48.562;14.440;2024-02-16T02:09:05;4.20;99.90
41592;DHT22;28026;48.562;14.440;2024-02-16T02:11:36;4.20;99.90
41592;DHT22;28026;48.562;14.440;2024-02-16T02:14:08;4.20;99.90
41592;DHT22;28026;48.562;14.440;2024-02-16T02:16:39;4.20;99.90
41592;DHT22;28026;48.562;14.440;2024-02-16T02:19:09;4.20;99.90
41592;DHT22;28026;48.562;14.440;2024-02-16T02:21:40;4.20;99.90
41592;DHT22;28026;48.562;14.440;2024-02-16T02:24:11;4.30;99.90
41592;DHT22;28026;48.562;14.440;2024-02-16T02:26:42;4.30;99.90
41592;DHT22;28026;48.562;14.440;2024-02-16T02:29:13;4.40;99.90
41592;DHT22;28026;48.562;14.440;2024-02-16T02:31:44;4.30;99.90
41592;DHT22;28026;48.562;14.440;2024-02-16T02:34:15;4.30;99.90
41592;DHT22;28026;48.562;14.440;2024-02-16T02:36:46;4.30;99.90
41592;DHT22;28026;48.562;14.440;2024-02-16T02:39:16;4.20;99.90
41592;DHT22;28026;48.562;14.440;2024-02-16T02:41:47;4.10;99.90
41592;DHT22;28026;48.562;14.440;2024-02-16T02:44:18;4.00;99.90
41592;DHT22;28026;48.562;14.440;2024-02-16T02:46:52;4.10;99.90
41592;DHT22;28026;48.562;14.440;2024-02-16T02:49:23;4.00;99.90
41592;DHT22;28026;48.562;14.440;2024-02-16T02:51:54;4.00;99.90
41592;DHT22;28026;48.562;14.440;2024-02-16T02:54:25;3.90;99.90
41592;DHT22;28026;48.562;14.440;2024-02-16T02:56:55;3.90;99.90
41592;DHT22;28026;48.562;14.440;2024-02-16T02:59:26;3.80;99.90
41592;DHT22;28026;48.562;14.440;2024-02-16T03:01:57;3.70;99.90
41592;DHT22;28026;48.562;14.440;2024-02-16T03:04:28;3.60;99.90
41592;DHT22;28026;48.562;14.440;2024-02-16T03:06:59;3.60;99.90
41592;DHT22;28026;48.562;14.440;2024-02-16T03:09:30;3.50;99.90
41592;DHT22;28026;48.562;14.440;2024-02-16T03:12:01;3.50;99.90
41592;DHT22;28026;48.562;14.440;2024-02-16T03:14:32;3.50;99.90
41592;DHT22;28026;48.562;14.440;2024-02-16T03:17:03;3.60;99.90
41592;DHT22;28026;48.562;14.440;2024-02-16T03:19:34;3.60;99.90
41592;DHT22;28026;48.562;14.440;2024-02-16T03:22:05;3.60;99.90
41592;DHT22;28026;48.562;14.440;2024-02-16T03:24:36;3.60;99.90
41592;DHT22;28026;48.562;14.440;2024-02-16T03:27:07;3.50;99.90
41592;DHT22;28026;48.562;14.440;2024-02-16T03:29:37;3.50;99.90
41592;DHT22;28026;48.562;14.440;2024-02-16T03:32:08;3.50;99.90
41592;DHT22;28026;48.562;14.440;2024-02-16T03:34:41;3.50;99.90
41592;DHT22;28026;48.562;14.440;2024-02-16T03:37:12;3.60;99.90
41592;DHT22;28026;48.562;14.440;2024-02-16T03:39:43;3.70;99.90
41592;DHT22;28026;48.562;14.440;2024-02-16T03:42:14;3.70;99.90
41592;DHT22;28026;48.562;14.440;2024-02-16T03:44:45;3.70;99.90
41592;DHT22;28026;48.562;14.440;2024-02-16T03:47:16;3.70;99.90
41592;DHT22;28026;48.562;14.440;2024-02-16T03:49:47;3.70;99.90
41592;DHT22;28026;48.562;14.440;2024-02-16T03:52:17;3.70;99.90
41592;DHT22;28026;48.562;14.440;2024-02-16T03:54:50;3.70;99.90
41592;DHT22;28026;48.562;14.440;2024-02-16T03:57:21;3.70;99.90
41592;DHT22;28026;48.562;14.440;2024-02-16T03:59:52;3.70;99.90
41592;DHT22;28026;48.562;14.440;2024-02-16T04:02:23;3.70;99.90
41592;DHT22;28026;48.562;14.440;2024-02-16T04:04:54;3.60;99.90
41592;DHT22;28026;48.562;14.440;2024-02-16T04:07:25;3.60;99.90
41592;DHT22;28026;48.562;14.440;2024-02-16T04:09:56;3.60;99.90
41592;DHT22;28026;48.562;14.440;2024-02-16T04:12:27;3.60;99.90
41592;DHT22;28026;48.562;14.440;2024-02-16T04:14:58;3.60;99.90
41592;DHT22;28026;48.562;14.440;2024-02-16T04:17:29;3.60;99.90
41592;DHT22;28026;48.562;14.440;2024-02-16T04:19:59;3.60;99.90
41592;DHT22;28026;48.562;14.440;2024-02-16T04:22:30;3.30;99.90
41592;DHT22;28026;48.562;14.440;2024-02-16T04:25:07;3.10;99.90
41592;DHT22;28026;48.562;14.440;2024-02-16T04:27:39;3.00;99.90
41592;DHT22;28026;48.562;14.440;2024-02-16T04:30:10;2.90;99.90
41592;DHT22;28026;48.562;14.440;2024-02-16T04:32:41;2.90;99.90
41592;DHT22;28026;48.562;14.440;2024-02-16T04:35:12;3.00;99.90
41592;DHT22;28026;48.562;14.440;2024-02-16T04:37:43;3.10;99.90
41592;DHT22;28026;48.562;14.440;2024-02-16T04:40:14;3.20;99.90
41592;DHT22;28026;48.562;14.440;2024-02-16T04:42:45;3.30;99.90
41592;DHT22;28026;48.562;14.440;2024-02-16T04:45:17;3.30;99.90
41592;DHT22;28026;48.562;14.440;2024-02-16T04:47:48;3.40;99.90
41592;DHT22;28026;48.562;14.440;2024-02-16T04:50:19;3.40;99.90
41592;DHT22;28026;48.562;14.440;2024-02-16T04:52:49;3.40;99.90
41592;DHT22;28026;48.562;14.440;2024-02-16T04:55:20;3.40;99.90
41592;DHT22;28026;48.562;14.440;2024-02-16T04:57:51;3.50;99.90
41592;DHT22;28026;48.562;14.440;2024-02-16T05:00:22;3.50;99.90
41592;DHT22;28026;48.562;14.440;2024-02-16T05:02:53;3.40;99.90
41592;DHT22;28026;48.562;14.440;2024-02-16T05:05:24;3.40;99.90
41592;DHT22;28026;48.562;14.440;2024-02-16T05:21:21;3.30;99.90
41592;DHT22;28026;48.562;14.440;2024-02-16T05:23:52;3.10;99.90
41592;DHT22;28026;48.562;14.440;2024-02-16T05:26:23;3.10;99.90
41592;DHT22;28026;48.562;14.440;2024-02-16T05:28:54;3.20;99.90
41592;DHT22;28026;48.562;14.440;2024-02-16T05:31:25;3.20;99.90
41592;DHT22;28026;48.562;14.440;2024-02-16T05:33:56;3.10;99.90
41592;DHT22;28026;48.562;14.440;2024-02-16T05:36:27;3.00;99.90
41592;DHT22;28026;48.562;14.440;2024-02-16T05:39:01;2.80;99.90
41592;DHT22;28026;48.562;14.440;2024-02-16T05:41:50;2.80;99.90
41592;DHT22;28026;48.562;14.440;2024-02-16T05:44:21;2.70;99.90
41592;DHT22;28026;48.562;14.440;2024-02-16T05:46:52;2.80;99.90
41592;DHT22;28026;48.562;14.440;2024-02-16T05:49:23;2.80;99.90
41592;DHT22;28026;48.562;14.440;2024-02-16T05:51:55;2.80;99.90
41592;DHT22;28026;48.562;14.440;2024-02-16T05:54:47;2.70;99.90
41592;DHT22;28026;48.562;14.440;2024-02-16T05:57:20;2.80;99.90
41592;DHT22;28026;48.562;14.440;2024-02-16T05:59:50;2.80;99.90
41592;DHT22;28026;48.562;14.440;2024-02-16T06:02:22;2.90;99.90
41592;DHT22;28026;48.562;14.440;2024-02-16T06:04:56;2.80;99.90
41592;DHT22;28026;48.562;14.440;2024-02-16T06:07:28;2.80;99.90
41592;DHT22;28026;48.562;14.440;2024-02-16T06:09:59;2.80;99.90
41592;DHT22;28026;48.562;14.440;2024-02-16T06:12:31;3.00;99.90
41592;DHT22;28026;48.562;14.440;2024-02-16T06:15:02;2.80;99.90
41592;DHT22;28026;48.562;14.440;2024-02-16T06:17:33;2.90;99.90
41592;DHT22;28026;48.562;14.440;2024-02-16T06:20:04;2.90;99.90
41592;DHT22;28026;48.562;14.440;2024-02-16T06:22:38;3.00;99.90
41592;DHT22;28026;48.562;14.440;2024-02-16T06:25:09;2.90;99.90
41592;DHT22;28026;48.562;14.440;2024-02-16T06:27:40;2.80;99.90
41592;DHT22;28026;48.562;14.440;2024-02-16T06:30:12;2.80;99.90
41592;DHT22;28026;48.562;14.440;2024-02-16T06:32:43;2.80;99.90
41592;DHT22;28026;48.562;14.440;2024-02-16T06:35:14;2.90;99.90
41592;DHT22;28026;48.562;14.440;2024-02-16T06:37:45;2.90;99.90
41592;DHT22;28026;48.562;14.440;2024-02-16T06:40:16;2.80;99.90
41592;DHT22;28026;48.562;14.440;2024-02-16T06:42:48;2.50;99.90
41592;DHT22;28026;48.562;14.440;2024-02-16T06:45:19;2.60;99.90
41592;DHT22;28026;48.562;14.440;2024-02-16T06:47:50;2.80;99.90
41592;DHT22;28026;48.562;14.440;2024-02-16T06:50:21;3.00;99.90
41592;DHT22;28026;48.562;14.440;2024-02-16T06:52:52;3.20;99.90
41592;DHT22;28026;48.562;14.440;2024-02-16T06:55:25;3.30;99.90
41592;DHT22;28026;48.562;14.440;2024-02-16T06:57:56;3.40;99.90
41592;DHT22;28026;48.562;14.440;2024-02-16T07:00:27;3.60;99.90
41592;DHT22;28026;48.562;14.440;2024-02-16T07:02:59;3.60;99.90
41592;DHT22;28026;48.562;14.440;2024-02-16T07:05:30;3.60;99.90
41592;DHT22;28026;48.562;14.440;2024-02-16T07:08:01;3.70;99.90
41592;DHT22;28026;48.562;14.440;2024-02-16T07:10:33;3.70;99.90
41592;DHT22;28026;48.562;14.440;2024-02-16T07:13:04;3.70;99.90
41592;DHT22;28026;48.562;14.440;2024-02-16T07:15:35;3.80;99.90
41592;DHT22;28026;48.562;14.440;2024-02-16T07:18:06;3.80;99.90
41592;DHT22;28026;48.562;14.440;2024-02-16T07:20:37;3.80;99.90
41592;DHT22;28026;48.562;14.440;2024-02-16T07:23:08;3.70;99.90
41592;DHT22;28026;48.562;14.440;2024-02-16T07:25:41;3.70;99.90
41592;DHT22;28026;48.562;14.440;2024-02-16T07:28:12;3.70;99.90
41592;DHT22;28026;48.562;14.440;2024-02-16T07:30:44;3.70;99.90
41592;DHT22;28026;48.562;14.440;2024-02-16T07:33:15;3.80;99.90
41592;DHT22;28026;48.562;14.440;2024-02-16T07:35:46;3.90;99.90
41592;DHT22;28026;48.562;14.440;2024-02-16T07:38:18;4.10;99.90
41592;DHT22;28026;48.562;14.440;2024-02-16T07:40:49;4.00;99.90
41592;DHT22;28026;48.562;14.440;2024-02-16T07:43:20;4.00;99.90
41592;DHT22;28026;48.562;14.440;2024-02-16T07:45:54;4.20;99.90
41592;DHT22;28026;48.562;14.440;2024-02-16T07:48:25;4.30;99.90
41592;DHT22;28026;48.562;14.440;2024-02-16T07:50:56;4.50;99.90
41592;DHT22;28026;48.562;14.440;2024-02-16T07:53:30;4.60;99.90
41592;DHT22;28026;48.562;14.440;2024-02-16T07:56:01;4.70;99.90
41592;DHT22;28026;48.562;14.440;2024-02-16T07:58:32;4.90;99.90
41592;DHT22;28026;48.562;14.440;2024-02-16T08:01:03;5.00;99.90
41592;DHT22;28026;48.562;14.440;2024-02-16T08:03:34;5.10;99.90
41592;DHT22;28026;48.562;14.440;2024-02-16T08:06:05;5.20;99.90
41592;DHT22;28026;48.562;14.440;2024-02-16T08:08:37;4.50;99.90
41592;DHT22;28026;48.562;14.440;2024-02-16T08:11:08;3.70;99.90
41592;DHT22;28026;48.562;14.440;2024-02-16T08:13:39;3.50;99.90
41592;DHT22;28026;48.562;14.440;2024-02-16T08:16:09;3.80;99.90
41592;DHT22;28026;48.562;14.440;2024-02-16T08:18:43;4.20;99.90
41592;DHT22;28026;48.562;14.440;2024-02-16T08:21:15;4.60;99.90
41592;DHT22;28026;48.562;14.440;2024-02-16T08:23:46;5.00;99.90
41592;DHT22;28026;48.562;14.440;2024-02-16T08:26:17;5.30;99.90
41592;DHT22;28026;48.562;14.440;2024-02-16T08:28:48;5.60;99.90
41592;DHT22;28026;48.562;14.440;2024-02-16T08:31:19;5.80;99.90
41592;DHT22;28026;48.562;14.440;2024-02-16T08:33:50;6.00;99.90
41592;DHT22;28026;48.562;14.440;2024-02-16T08:36:21;6.20;99.90
41592;DHT22;28026;48.562;14.440;2024-02-16T08:38:58;6.40;99.90
41592;DHT22;28026;48.562;14.440;2024-02-16T08:41:29;6.50;99.90
41592;DHT22;28026;48.562;14.440;2024-02-16T08:44:00;6.60;99.90
41592;DHT22;28026;48.562;14.440;2024-02-16T08:46:30;6.40;99.90
41592;DHT22;28026;48.562;14.440;2024-02-16T08:49:02;6.50;99.90
41592;DHT22;28026;48.562;14.440;2024-02-16T08:51:34;6.50;99.90
41592;DHT22;28026;48.562;14.440;2024-02-16T08:54:05;6.50;99.90
41592;DHT22;28026;48.562;14.440;2024-02-16T08:56:36;6.70;99.90
41592;DHT22;28026;48.562;14.440;2024-02-16T08:59:09;6.90;99.90
41592;DHT22;28026;48.562;14.440;2024-02-16T09:01:41;7.00;99.90
41592;DHT22;28026;48.562;14.440;2024-02-16T09:04:13;7.30;99.90
41592;DHT22;28026;48.562;14.440;2024-02-16T09:06:46;7.50;99.90
41592;DHT22;28026;48.562;14.440;2024-02-16T09:09:17;7.70;99.90
41592;DHT22;28026;48.562;14.440;2024-02-16T09:11:48;7.80;99.90
41592;DHT22;28026;48.562;14.440;2024-02-16T09:14:19;7.60;99.90
41592;DHT22;28026;48.562;14.440;2024-02-16T09:16:50;7.70;99.90
41592;DHT22;28026;48.562;14.440;2024-02-16T09:19:24;8.00;99.90
41592;DHT22;28026;48.562;14.440;2024-02-16T09:21:55;8.20;99.90
41592;DHT22;28026;48.562;14.440;2024-02-16T09:24:27;8.30;99.90
41592;DHT22;28026;48.562;14.440;2024-02-16T09:26:59;8.50;99.90
41592;DHT22;28026;48.562;14.440;2024-02-16T09:29:33;8.70;99.90
41592;DHT22;28026;48.562;14.440;2024-02-16T09:32:05;8.60;99.90
41592;DHT22;28026;48.562;14.440;2024-02-16T09:34:36;8.80;99.90
41592;DHT22;28026;48.562;14.440;2024-02-16T09:37:07;9.00;99.90
41592;DHT22;28026;48.562;14.440;2024-02-16T09:39:38;9.00;99.90
41592;DHT22;28026;48.562;14.440;2024-02-16T09:42:09;9.10;99.90
41592;DHT22;28026;48.562;14.440;2024-02-16T09:44:41;9.10;99.90
41592;DHT22;28026;48.562;14.440;2024-02-16T09:47:16;9.30;99.90
41592;DHT22;28026;48.562;14.440;2024-02-16T09:49:50;9.40;99.90
41592;DHT22;28026;48.562;14.440;2024-02-16T09:52:21;9.80;99.90
41592;DHT22;28026;48.562;14.440;2024-02-16T09:54:53;10.00;99.90
41592;DHT22;28026;48.562;14.440;2024-02-16T09:57:24;10.10;99.90
41592;DHT22;28026;48.562;14.440;2024-02-16T09:59:55;10.20;99.90
41592;DHT22;28026;48.562;14.440;2024-02-16T10:02:26;10.40;99.90
41592;DHT22;28026;48.562;14.440;2024-02-16T10:04:56;10.40;99.90
41592;DHT22;28026;48.562;14.440;2024-02-16T10:07:31;10.50;99.90
41592;DHT22;28026;48.562;14.440;2024-02-16T10:10:03;10.10;99.90
41592;DHT22;28026;48.562;14.440;2024-02-16T10:12:34;10.30;99.90
41592;DHT22;28026;48.562;14.440;2024-02-16T10:15:05;10.60;99.90
41592;DHT22;28026;48.562;14.440;2024-02-16T10:17:37;10.70;99.90
41592;DHT22;28026;48.562;14.440;2024-02-16T10:20:08;10.80;99.90
41592;DHT22;28026;48.562;14.440;2024-02-16T10:22:41;11.10;99.90
41592;DHT22;28026;48.562;14.440;2024-02-16T10:25:12;11.10;99.90
41592;DHT22;28026;48.562;14.440;2024-02-16T10:27:47;11.20;99.90
41592;DHT22;28026;48.562;14.440;2024-02-16T10:30:18;11.30;99.90
41592;DHT22;28026;48.562;14.440;2024-02-16T10:32:51;11.40;99.90
41592;DHT22;28026;48.562;14.440;2024-02-16T10:35:25;11.50;99.90
41592;DHT22;28026;48.562;14.440;2024-02-16T10:38:01;11.50;99.90
41592;DHT22;28026;48.562;14.440;2024-02-16T10:40:38;11.60;99.90
41592;DHT22;28026;48.562;14.440;2024-02-16T10:43:12;11.90;99.90
41592;DHT22;28026;48.562;14.440;2024-02-16T10:45:46;12.00;99.90
41592;DHT22;28026;48.562;14.440;2024-02-16T10:48:19;12.40;99.90
41592;DHT22;28026;48.562;14.440;2024-02-16T10:50:51;12.70;99.90
41592;DHT22;28026;48.562;14.440;2024-02-16T10:53:26;13.10;99.90
41592;DHT22;28026;48.562;14.440;2024-02-16T10:56:00;13.10;99.90
41592;DHT22;28026;48.562;14.440;2024-02-16T10:58:36;13.10;99.90
41592;DHT22;28026;48.562;14.440;2024-02-16T11:01:14;13.30;99.90
41592;DHT22;28026;48.562;14.440;2024-02-16T11:03:46;13.80;99.90
41592;DHT22;28026;48.562;14.440;2024-02-16T11:06:17;14.30;99.90
41592;DHT22;28026;48.562;14.440;2024-02-16T11:08:49;14.70;99.90
41592;DHT22;28026;48.562;14.440;2024-02-16T11:11:23;14.40;99.90
41592;DHT22;28026;48.562;14.440;2024-02-16T11:13:55;14.50;99.90
41592;DHT22;28026;48.562;14.440;2024-02-16T11:16:30;14.60;99.90
41592;DHT22;28026;48.562;14.440;2024-02-16T11:19:01;14.70;99.90
41592;DHT22;28026;48.562;14.440;2024-02-16T11:21:34;14.50;99.90
41592;DHT22;28026;48.562;14.440;2024-02-16T11:24:08;14.10;99.90
41592;DHT22;28026;48.562;14.440;2024-02-16T11:26:43;14.50;99.90
41592;DHT22;28026;48.562;14.440;2024-02-16T11:29:15;14.70;99.90
41592;DHT22;28026;48.562;14.440;2024-02-16T11:31:46;14.40;99.90
41592;DHT22;28026;48.562;14.440;2024-02-16T11:34:22;14.80;99.90
41592;DHT22;28026;48.562;14.440;2024-02-16T11:36:55;15.30;99.90
41592;DHT22;28026;48.562;14.440;2024-02-16T11:39:27;14.90;99.90
41592;DHT22;28026;48.562;14.440;2024-02-16T11:42:07;14.80;99.90
41592;DHT22;28026;48.562;14.440;2024-02-16T11:44:53;15.40;99.90
41592;DHT22;28026;48.562;14.440;2024-02-16T11:47:25;15.40;99.90
41592;DHT22;28026;48.562;14.440;2024-02-16T11:50:04;15.60;99.90
41592;DHT22;28026;48.562;14.440;2024-02-16T11:52:43;15.30;99.90
41592;DHT22;28026;48.562;14.440;2024-02-16T11:55:14;15.40;99.90
41592;DHT22;28026;48.562;14.440;2024-02-16T11:57:46;15.60;99.90
41592;DHT22;28026;48.562;14.440;2024-02-16T12:00:21;15.60;99.90
41592;DHT22;28026;48.562;14.440;2024-02-16T12:03:01;15.90;99.90
41592;DHT22;28026;48.562;14.440;2024-02-16T12:05:33;15.20;99.90
41592;DHT22;28026;48.562;14.440;2024-02-16T12:08:06;15.40;99.90
41592;DHT22;28026;48.562;14.440;2024-02-16T12:10:38;15.50;99.90
41592;DHT22;28026;48.562;14.440;2024-02-16T12:13:09;16.10;99.90
41592;DHT22;28026;48.562;14.440;2024-02-16T12:15:40;16.60;99.90
41592;DHT22;28026;48.562;14.440;2024-02-16T12:21:04;16.40;99.90
41592;DHT22;28026;48.562;14.440;2024-02-16T12:23:36;16.30;99.90
41592;DHT22;28026;48.562;14.440;2024-02-16T12:26:07;17.10;99.90
41592;DHT22;28026;48.562;14.440;2024-02-16T12:28:38;17.50;99.90
41592;DHT22;28026;48.562;14.440;2024-02-16T12:31:18;17.00;99.90
41592;DHT22;28026;48.562;14.440;2024-02-16T12:33:51;17.20;99.90
41592;DHT22;28026;48.562;14.440;2024-02-16T12:36:22;17.00;99.90
41592;DHT22;28026;48.562;14.440;2024-02-16T12:38:53;16.90;99.90
41592;DHT22;28026;48.562;14.440;2024-02-16T12:41:24;16.80;99.90
41592;DHT22;28026;48.562;14.440;2024-02-16T12:43:55;17.00;99.90
41592;DHT22;28026;48.562;14.440;2024-02-16T12:46:26;16.20;99.90
41592;DHT22;28026;48.562;14.440;2024-02-16T12:48:58;16.30;99.90
41592;DHT22;28026;48.562;14.440;2024-02-16T12:51:29;16.10;99.90
41592;DHT22;28026;48.562;14.440;2024-02-16T12:54:00;16.20;99.90
41592;DHT22;28026;48.562;14.440;2024-02-16T12:56:34;16.70;99.90
41592;DHT22;28026;48.562;14.440;2024-02-16T12:59:05;17.10;99.90
41592;DHT22;28026;48.562;14.440;2024-02-16T13:01:36;17.20;99.90
41592;DHT22;28026;48.562;14.440;2024-02-16T13:04:07;16.50;99.90
41592;DHT22;28026;48.562;14.440;2024-02-16T13:06:38;16.40;99.90
41592;DHT22;28026;48.562;14.440;2024-02-16T13:09:09;16.80;99.90
41592;DHT22;28026;48.562;14.440;2024-02-16T13:11:40;16.90;99.90
41592;DHT22;28026;48.562;14.440;2024-02-16T13:14:11;16.60;99.90
41592;DHT22;28026;48.562;14.440;2024-02-16T13:16:42;16.20;99.90
41592;DHT22;28026;48.562;14.440;2024-02-16T13:19:13;16.30;99.90
41592;DHT22;28026;48.562;14.440;2024-02-16T13:21:44;15.90;99.90
41592;DHT22;28026;48.562;14.440;2024-02-16T13:24:15;15.90;99.90
41592;DHT22;28026;48.562;14.440;2024-02-16T13:26:46;15.50;99.90
41592;DHT22;28026;48.562;14.440;2024-02-16T13:29:17;15.30;99.90
41592;DHT22;28026;48.562;14.440;2024-02-16T13:31:48;15.20;99.90
41592;DHT22;28026;48.562;14.440;2024-02-16T13:34:19;15.70;99.90
41592;DHT22;28026;48.562;14.440;2024-02-16T13:36:49;16.20;99.90
41592;DHT22;28026;48.562;14.440;2024-02-16T13:39:20;16.40;99.90
41592;DHT22;28026;48.562;14.440;2024-02-16T13:41:53;16.40;99.90
41592;DHT22;28026;48.562;14.440;2024-02-16T13:44:24;16.20;99.90
41592;DHT22;28026;48.562;14.440;2024-02-16T13:46:56;15.80;99.90
41592;DHT22;28026;48.562;14.440;2024-02-16T13:49:27;15.90;99.90
41592;DHT22;28026;48.562;14.440;2024-02-16T13:51:58;16.30;99.90
41592;DHT22;28026;48.562;14.440;2024-02-16T13:54:29;15.90;99.90
41592;DHT22;28026;48.562;14.440;2024-02-16T13:57:00;16.10;99.90
41592;DHT22;28026;48.562;14.440;2024-02-16T13:59:31;16.10;99.90
41592;DHT22;28026;48.562;14.440;2024-02-16T14:02:03;15.60;99.90
41592;DHT22;28026;48.562;14.440;2024-02-16T14:04:35;15.20;99.90
41592;DHT22;28026;48.562;14.440;2024-02-16T14:07:07;15.00;99.90
41592;DHT22;28026;48.562;14.440;2024-02-16T14:09:39;14.70;99.90
41592;DHT22;28026;48.562;14.440;2024-02-16T14:12:10;14.60;99.90
41592;DHT22;28026;48.562;14.440;2024-02-16T14:14:42;14.40;99.90
41592;DHT22;28026;48.562;14.440;2024-02-16T14:17:13;14.40;99.90
41592;DHT22;28026;48.562;14.440;2024-02-16T14:19:45;14.00;99.90
41592;DHT22;28026;48.562;14.440;2024-02-16T14:22:16;14.00;99.90
41592;DHT22;28026;48.562;14.440;2024-02-16T14:24:46;14.20;99.90
41592;DHT22;28026;48.562;14.440;2024-02-16T14:27:17;14.10;99.90
41592;DHT22;28026;48.562;14.440;2024-02-16T14:29:49;13.90;99.90
41592;DHT22;28026;48.562;14.440;2024-02-16T14:32:20;14.30;99.90
41592;DHT22;28026;48.562;14.440;2024-02-16T14:34:51;14.50;99.90
41592;DHT22;28026;48.562;14.440;2024-02-16T14:37:22;14.40;99.90
41592;DHT22;28026;48.562;14.440;2024-02-16T14:39:53;14.50;99.90
41592;DHT22;28026;48.562;14.440;2024-02-16T14:42:29;14.20;99.90
41592;DHT22;28026;48.562;14.440;2024-02-16T14:45:00;14.30;99.90
41592;DHT22;28026;48.562;14.440;2024-02-16T14:47:33;14.60;99.90
41592;DHT22;28026;48.562;14.440;2024-02-16T14:50:04;14.20;99.90
41592;DHT22;28026;48.562;14.440;2024-02-16T14:52:38;14.40;99.90
41592;DHT22;28026;48.562;14.440;2024-02-16T14:55:10;14.60;99.90
41592;DHT22;28026;48.562;14.440;2024-02-16T14:57:44;14.40;99.90
41592;DHT22;28026;48.562;14.440;2024-02-16T15:00:15;14.20;99.90
41592;DHT22;28026;48.562;14.440;2024-02-16T15:02:47;14.40;99.90
41592;DHT22;28026;48.562;14.440;2024-02-16T15:05:18;14.50;99.90
41592;DHT22;28026;48.562;14.440;2024-02-16T15:07:51;14.80;99.90
41592;DHT22;28026;48.562;14.440;2024-02-16T15:10:22;14.90;99.90
41592;DHT22;28026;48.562;14.440;2024-02-16T15:12:53;14.80;99.90
41592;DHT22;28026;48.562;14.440;2024-02-16T15:15:24;14.40;99.90
41592;DHT22;28026;48.562;14.440;2024-02-16T15:17:55;15.00;99.90
41592;DHT22;28026;48.562;14.440;2024-02-16T15:20:26;14.70;99.90
41592;DHT22;28026;48.562;14.440;2024-02-16T15:22:58;14.60;99.90
41592;DHT22;28026;48.562;14.440;2024-02-16T15:25:28;14.80;99.90
41592;DHT22;28026;48.562;14.440;2024-02-16T15:27:59;14.60;99.90
41592;DHT22;28026;48.562;14.440;2024-02-16T15:30:30;14.10;99.90
41592;DHT22;28026;48.562;14.440;2024-02-16T15:33:01;13.90;99.90
41592;DHT22;28026;48.562;14.440;2024-02-16T15:35:32;13.80;99.90
41592;DHT22;28026;48.562;14.440;2024-02-16T15:38:04;13.50;99.90
41592;DHT22;28026;48.562;14.440;2024-02-16T15:40:34;13.80;99.90
41592;DHT22;28026;48.562;14.440;2024-02-16T15:43:06;13.90;99.90
41592;DHT22;28026;48.562;14.440;2024-02-16T15:45:38;13.90;99.90
41592;DHT22;28026;48.562;14.440;2024-02-16T15:48:10;13.60;99.90
41592;DHT22;28026;48.562;14.440;2024-02-16T15:50:45;13.20;99.90
41592;DHT22;28026;48.562;14.440;2024-02-16T15:53:16;12.90;99.90
41592;DHT22;28026;48.562;14.440;2024-02-16T15:55:47;12.90;99.90
41592;DHT22;28026;48.562;14.440;2024-02-16T15:58:18;12.50;99.90
41592;DHT22;28026;48.562;14.440;2024-02-16T16:00:49;12.40;99.90
41592;DHT22;28026;48.562;14.440;2024-02-16T16:03:20;12.30;99.90
41592;DHT22;28026;48.562;14.440;2024-02-16T16:05:51;12.00;99.90
41592;DHT22;28026;48.562;14.440;2024-02-16T16:08:22;11.90;99.90